createdAt,value
2023-04-28T00:09:04.466Z,19.28
2023-04-28T00:24:06.507Z,19.24
2023-04-28T00:39:08.275Z,19.22
2023-04-28T00:54:16.400Z,19.18
2023-04-28T01:09:18.444Z,19.13
2023-04-28T01:24:20.070Z,19.10
2023-04-28T01:39:21.801Z,19.08
2023-04-28T01:54:23.619Z,19.04
2023-04-28T02:09:25.303Z,19.01
2023-04-28T02:24:26.936Z,18.98
2023-04-28T02:39:28.618Z,18.95
2023-04-28T02:54:30.302Z,18.91
2023-04-28T03:09:32.062Z,18.89
2023-04-28T03:24:33.701Z,18.86
2023-04-28T03:39:35.358Z,18.83
2023-04-28T03:54:37.127Z,18.79
2023-04-28T04:09:38.834Z,18.77
2023-04-28T04:24:40.525Z,18.76
2023-04-28T04:39:42.198Z,18.73
2023-04-28T04:54:44.100Z,18.70
2023-04-28T05:09:45.759Z,18.70
2023-04-28T05:24:47.403Z,18.68
2023-04-28T05:39:49.066Z,18.65
2023-04-28T05:54:50.722Z,18.65
2023-04-28T06:09:52.394Z,18.63
2023-04-28T06:24:54.051Z,18.63
2023-04-28T06:39:55.782Z,18.64
2023-04-28T06:54:57.421Z,18.65
2023-04-28T07:09:59.073Z,18.65
2023-04-28T07:25:00.778Z,18.63
2023-04-28T07:40:02.498Z,18.65
2023-04-28T07:55:04.322Z,18.68
2023-04-28T08:10:06.500Z,18.68
2023-04-28T08:25:08.543Z,18.70
2023-04-28T08:40:10.460Z,18.71
2023-04-28T08:55:13.147Z,18.72
2023-04-28T09:10:21.756Z,18.74
2023-04-28T09:25:23.962Z,18.74
2023-04-28T09:40:25.692Z,18.74
2023-04-28T09:55:28.619Z,18.75
2023-04-28T10:10:30.433Z,18.74
2023-04-28T10:25:35.295Z,18.73
2023-04-28T10:40:39.429Z,18.70
2023-04-28T10:55:41.499Z,18.69
2023-04-28T11:11:07.929Z,18.69
2023-04-28T11:26:09.736Z,18.71
2023-04-28T11:41:12.571Z,18.69
2023-04-28T11:56:14.555Z,18.72
2023-04-28T12:11:18.377Z,18.74
2023-04-28T12:26:25.562Z,18.73
2023-04-28T12:41:27.220Z,18.71
2023-04-28T12:56:29.299Z,18.73
2023-04-28T13:11:30.973Z,18.75
2023-04-28T13:26:32.668Z,18.80
2023-04-28T13:41:34.363Z,18.79
2023-04-28T13:56:36.630Z,18.75
2023-04-28T14:11:38.390Z,18.73
2023-04-28T14:26:40.078Z,18.70
2023-04-28T14:41:41.840Z,18.69
2023-04-28T14:56:43.491Z,18.67
2023-04-28T15:11:45.394Z,18.67
2023-04-28T15:26:47.313Z,18.66
2023-04-28T15:41:49.020Z,18.67
2023-04-28T15:56:50.688Z,18.68
2023-04-28T16:11:52.384Z,18.66
2023-04-28T16:26:54.128Z,18.66
2023-04-28T16:41:55.806Z,18.65
2023-04-28T16:56:59.072Z,18.63
2023-04-28T17:12:01.061Z,18.60
2023-04-28T17:27:02.890Z,18.59
2023-04-28T17:42:04.573Z,18.57
2023-04-28T17:57:06.259Z,18.56
2023-04-28T18:12:07.942Z,18.55
2023-04-28T18:27:09.593Z,18.52
2023-04-28T18:42:11.474Z,18.51
2023-04-28T18:57:13.248Z,18.51
2023-04-28T19:12:14.957Z,18.49
2023-04-28T19:27:16.624Z,18.47
2023-04-28T19:42:19.060Z,18.46
2023-04-28T19:57:20.956Z,18.44
2023-04-28T20:12:22.622Z,18.42
2023-04-28T20:27:24.280Z,18.42
2023-04-28T20:42:26.085Z,18.40
2023-04-28T20:57:27.765Z,18.38
2023-04-28T21:12:29.459Z,18.38
2023-04-28T21:27:31.263Z,18.36
2023-04-28T21:42:32.950Z,18.36
2023-04-28T21:57:34.630Z,18.35
2023-04-28T22:12:36.323Z,18.34
2023-04-28T22:27:38.514Z,18.32
2023-04-28T22:42:41.789Z,18.32
2023-04-28T22:57:43.463Z,18.30
2023-04-28T23:12:45.102Z,18.29
2023-04-28T23:27:46.737Z,18.28
2023-04-28T23:42:48.407Z,18.27
2023-04-28T23:57:50.051Z,18.25
